KMWM/MWM METAR and TAF weather

Enter ICAO airport designator
Station Type Date Time Source
KMWM METAR 2023/01/30 12:15 UTC NOAA

KMWM 301215Z AUTO 27011KT 10SM CLR M22/M25 A3039 RMK AO2


Station Type Date Time Source
KMWM Decoded METAR 2023/01/30 12:15 UTC NOAA

Windom, Windom Municipal Airport, MN, United States (KMWM) 43-54-48N 095-06-34W
Jan 30, 2023 - 07:15 AM EST / 2023.01.30 1215 UTC
Wind: from the W (270 degrees) at 13 MPH (11 KT):0
Visibility: 10 mile(s):0
Sky conditions: clear
Temperature: -7 F (-22 C)
Windchill: -27 F (-33 C):2
Dew Point: -13 F (-25 C)
Relative Humidity: 76%
Pressure (altimeter): 30.39 in. Hg (1029 hPa)
ob: KMWM 301215Z AUTO 27011KT 10SM CLR M22/M25 A3039 RMK AO2
cycle: 12

Station Type Date Time Source
KMWM TAF UTC NOAA

Error!

Example: see airport list